Palestine, TX

5:42 AM CDT on April 26, 2017 (GMT -0500)
Palestine Municipal

Weather History for KPSN - December, 2013

Change the Weather History Date:

Sunday, December 1, 2013

  Actual Average (KTYR) Record (KTYR)
Temperature  
Mean Temperature 63 °F -  
Max Temperature 70 °F 61 °F 81 °F (1982)
Min Temperature 56 °F 41 °F 19 °F (1975)
Degree Days  
Heating Degree Days 2    
Growing Degree Days 13 (Base 50)    
Moisture  
Dew Point 53 °F    
Average Humidity 72    
Maximum Humidity 86    
Minimum Humidity 58    
Precipitation  
Precipitation 0.00 in - - ()
Sea Level Pressure  
Sea Level Pressure 30.11 in    
Wind  
Wind Speed 7 mph (South)    
Max Wind Speed 14 mph    
Max Gust Speed 20 mph    
Visibility 10 miles    
Events      
Averages and records for this station are not official NWS values.
T = Trace of Precipitation, MM = Missing Value Source: NWS Daily Summary

Daily Weather History Graph

Daily Weather History Graph

Search for Another Location

Airport or City:

Trip Planner

Search our weather history database for the weather conditions in past years. The results will help you decide how hot, cold, wet, or windy it might be!

Date:

Astronomy

Dec. 01, 2013 Rise Set
Actual Time 7:05 AM CST 5:18 PM CST
Civil Twilight 6:38 AM CST 5:45 PM CST
Nautical Twilight 6:08 AM CST 6:15 PM CST
Astronomical Twilight 5:38 AM CST 6:44 PM CST
Moon 5:29 AM CST (12/1) 4:25 PM CST (12/1)
Length of Visible Light 11h 06m
Length of Day
10h 13m
Waning Crescent, 2% of the Moon is Illuminated
Dec 1
Waning Crescent
Dec 2
New
Dec 9
First Quarter
Dec 17
Full
Dec 25
Last Quarter

Hourly Weather History & Observations

Time (CST) Temp. Dew Point Humidity Pressure Visibility Wind Dir Wind Speed Gust Speed Precip Events Conditions
12:15 AM 59.9 °F 50.2 °F 70% 30.23 in 10.0 mi South 6.9 mph - N/A   Mostly Cloudy
12:35 AM 59.2 °F 49.6 °F 71% 30.23 in 10.0 mi SSE 5.8 mph - N/A   Scattered Clouds
12:55 AM 59.2 °F 49.3 °F 70% 30.22 in 10.0 mi SSE 6.9 mph - N/A   Mostly Cloudy
1:15 AM 59.4 °F 48.7 °F 68% 30.22 in 10.0 mi South 4.6 mph - N/A   Overcast
1:35 AM 59.2 °F 48.6 °F 68% 30.22 in 10.0 mi South 5.8 mph - N/A   Overcast
1:55 AM 59.0 °F 48.6 °F 68% 30.22 in 10.0 mi South 5.8 mph - N/A   Overcast
2:15 AM 59.0 °F 48.4 °F 68% 30.22 in 10.0 mi South 6.9 mph - N/A   Overcast
2:35 AM 59.0 °F 48.2 °F 67% 30.22 in 10.0 mi SSE 6.9 mph - N/A   Overcast
2:55 AM 58.3 °F 47.8 °F 68% 30.22 in 10.0 mi SSE 4.6 mph - N/A   Mostly Cloudy
3:15 AM 58.5 °F 47.8 °F 68% 30.21 in 10.0 mi SSE 5.8 mph - N/A   Overcast
3:35 AM 58.6 °F 48.2 °F 68% 30.21 in 10.0 mi South 5.8 mph - N/A   Overcast
3:55 AM 58.6 °F 48.6 °F 69% 30.21 in 10.0 mi South 5.8 mph - N/A   Overcast
4:15 AM 58.5 °F 49.3 °F 72% 30.20 in 10.0 mi South 6.9 mph - N/A   Overcast
4:35 AM 58.5 °F 50.2 °F 74% 30.20 in 10.0 mi SSE 5.8 mph - N/A   Overcast
4:55 AM 58.1 °F 50.5 °F 76% 30.20 in 10.0 mi South 6.9 mph - N/A   Overcast
5:15 AM 58.1 °F 50.9 °F 77% 30.20 in 10.0 mi SSE 5.8 mph - N/A   Overcast
5:35 AM 57.6 °F 50.5 °F 77% 30.20 in 10.0 mi SSE 5.8 mph - N/A   Overcast
5:55 AM 57.6 °F 50.7 °F 78% 30.20 in 10.0 mi SSE 4.6 mph - N/A   Overcast
6:15 AM 57.4 °F 50.9 °F 79% 30.20 in 10.0 mi SSE 4.6 mph - N/A   Overcast
6:35 AM 57.2 °F 50.9 °F 79% 30.21 in 10.0 mi SSE 5.8 mph - N/A   Overcast
6:55 AM 57.2 °F 50.9 °F 79% 30.19 in 10.0 mi SSE 6.9 mph - N/A   Overcast
7:15 AM 56.8 °F 50.9 °F 80% 30.18 in 10.0 mi SSE 4.6 mph - N/A   Overcast
7:35 AM 57.2 °F 51.1 °F 80% 30.20 in 10.0 mi South 5.8 mph - N/A   Overcast
7:55 AM 57.4 °F 51.3 °F 80% 30.20 in 10.0 mi South 4.6 mph - N/A   Overcast
8:15 AM 57.7 °F 51.4 °F 79% 30.20 in 10.0 mi South 6.9 mph - N/A   Overcast
8:35 AM 58.1 °F 51.8 °F 80% 30.20 in 10.0 mi South 6.9 mph - N/A   Overcast
8:55 AM 59.0 °F 51.8 °F 77% 30.19 in 10.0 mi SSE 8.1 mph - N/A   Overcast
9:15 AM 59.2 °F 52.0 °F 77% 30.20 in 10.0 mi South 6.9 mph - N/A   Overcast
9:35 AM 60.1 °F 52.2 °F 75% 30.20 in 10.0 mi South 10.4 mph - N/A   Overcast
9:55 AM 61.0 °F 52.3 °F 73% 30.20 in 10.0 mi South 9.2 mph - N/A   Overcast
10:15 AM 61.9 °F 52.3 °F 71% 30.20 in 10.0 mi South 12.7 mph 17.3 mph N/A   Overcast
10:35 AM 63.3 °F 53.1 °F 69% 30.20 in 10.0 mi South 9.2 mph - N/A   Overcast
10:55 AM 63.9 °F 52.9 °F 67% 30.19 in 10.0 mi South 11.5 mph - N/A   Overcast
11:15 AM 63.9 °F 52.9 °F 67% 30.18 in 10.0 mi South 8.1 mph - N/A   Overcast
11:35 AM 64.4 °F 53.4 °F 67% 30.17 in 10.0 mi South 5.8 mph - N/A   Overcast
11:55 AM 66.0 °F 53.8 °F 65% 30.15 in 10.0 mi South 5.8 mph - N/A   Overcast
12:15 PM 66.4 °F 53.8 °F 64% 30.14 in 10.0 mi SSW 11.5 mph - N/A   Overcast
12:35 PM 66.7 °F 54.0 °F 63% 30.12 in 10.0 mi South 10.4 mph 16.1 mph N/A   Overcast
12:55 PM 68.4 °F 54.5 °F 61% 30.10 in 10.0 mi South 5.8 mph - N/A   Mostly Cloudy
1:15 PM 69.8 °F 54.3 °F 58% 30.09 in 10.0 mi SSW 11.5 mph 16.1 mph N/A   Scattered Clouds
1:35 PM 68.9 °F 54.5 °F 60% 30.07 in 10.0 mi SSE 9.2 mph 16.1 mph N/A   Mostly Cloudy
1:55 PM 68.4 °F 54.9 °F 62% 30.06 in 10.0 mi South 9.2 mph - N/A   Mostly Cloudy
2:15 PM 69.3 °F 54.9 °F 60% 30.05 in 10.0 mi South 6.9 mph - N/A   Mostly Cloudy
2:35 PM 70.2 °F 55.0 °F 59% 30.04 in 10.0 mi SSW 10.4 mph - N/A   Overcast
2:55 PM 70.5 °F 54.9 °F 58% 30.03 in 10.0 mi South 9.2 mph - N/A   Mostly Cloudy
3:15 PM 69.8 °F 55.0 °F 59% 30.03 in 10.0 mi SSW 13.8 mph 19.6 mph N/A   Overcast
3:35 PM 69.8 °F 55.4 °F 60% 30.03 in 10.0 mi SSW 12.7 mph 18.4 mph N/A   Overcast
3:55 PM 69.8 °F 55.0 °F 59% 30.03 in 10.0 mi SSW 11.5 mph - N/A   Mostly Cloudy
4:15 PM 69.1 °F 55.2 °F 61% 30.03 in 10.0 mi South 10.4 mph - N/A   Mostly Cloudy
4:35 PM 68.5 °F 55.4 °F 63% 30.02 in 10.0 mi South 11.5 mph 17.3 mph N/A   Overcast
4:55 PM 68.2 °F 55.4 °F 64% 30.02 in 10.0 mi South 6.9 mph - N/A   Overcast
5:15 PM 67.6 °F 55.6 °F 65% 30.01 in 10.0 mi South 6.9 mph - N/A   Mostly Cloudy
5:35 PM 67.1 °F 56.1 °F 68% 30.00 in 10.0 mi South 5.8 mph - N/A   Scattered Clouds
5:55 PM 66.2 °F 56.3 °F 70% 29.99 in 10.0 mi South 4.6 mph - N/A   Clear
6:15 PM 65.8 °F 56.5 °F 72% 30.00 in 10.0 mi South 5.8 mph - N/A   Clear
6:35 PM 65.5 °F 56.7 °F 73% 29.99 in 10.0 mi South 4.6 mph - N/A   Clear
6:55 PM 65.3 °F 56.8 °F 74% 29.99 in 10.0 mi South 5.8 mph - N/A   Clear
7:15 PM 65.3 °F 57.0 °F 75% 29.99 in 10.0 mi South 6.9 mph - N/A   Clear
7:35 PM 64.8 °F 57.0 °F 76% 29.98 in 10.0 mi South 5.8 mph - N/A   Clear
7:55 PM 64.4 °F 57.2 °F 77% 29.98 in 10.0 mi South 5.8 mph - N/A   Clear
8:15 PM 64.0 °F 57.2 °F 78% 29.98 in 10.0 mi South 5.8 mph - N/A   Clear
8:35 PM 63.9 °F 57.2 °F 79% 29.98 in 10.0 mi South 6.9 mph - N/A   Clear
8:55 PM 63.9 °F 57.2 °F 79% 29.98 in 10.0 mi South 6.9 mph - N/A   Clear
9:15 PM 63.5 °F 57.2 °F 80% 29.98 in 10.0 mi South 5.8 mph - N/A   Scattered Clouds
9:35 PM 63.5 °F 57.2 °F 80% 29.98 in 10.0 mi South 4.6 mph - N/A   Mostly Cloudy
9:55 PM 63.3 °F 57.2 °F 80% 29.97 in 10.0 mi South 5.8 mph - N/A   Scattered Clouds
10:15 PM 63.0 °F 57.2 °F 81% 29.97 in 10.0 mi South 3.5 mph - N/A   Scattered Clouds
10:35 PM 62.8 °F 57.2 °F 82% 29.97 in 10.0 mi SSE 4.6 mph - N/A   Clear
10:55 PM 62.6 °F 57.2 °F 82% 29.96 in 10.0 mi SSE 5.8 mph - N/A   Clear
11:15 PM 62.1 °F 57.2 °F 84% 29.96 in 10.0 mi South 3.5 mph - N/A   Clear
11:35 PM 62.1 °F 57.4 °F 85% 29.95 in 10.0 mi SSE 4.6 mph - N/A   Mostly Cloudy
11:55 PM 61.3 °F 57.0 °F 86% 29.95 in 10.0 mi SSE 3.5 mph - N/A   Mostly Cloudy